Time;durP1;ratioP1;P1;durP2;ratioP2;P2;SDS_P1;SDS_P2;PMS_P1;PMS_P2;Temp;Humidity;BMP_temperature;BMP_pressure;BME280_temperature;BME280_humidity;BME280_pressure;Samples;Min_cycle;Max_cycle;Signal;HPM_P1;HPM_P2
2023/01/23 00:00:24;;;;;;;;;5.75;4.25;;;;;20.44;39.55;103269.19;5058121;28;45450;-73
2023/01/23 00:02:50;;;;;;;;;5.00;4.25;;;;;20.40;39.88;103268.59;5058525;28;45433;-74
2023/01/23 00:05:15;;;;;;;;;8.00;6.00;;;;;20.48;39.52;103281.25;5057919;28;46179;-74
2023/01/23 00:07:40;;;;;;;;;7.00;5.25;;;;;20.47;39.83;103271.63;5057026;28;45464;-74
2023/01/23 00:10:06;;;;;;;;;8.75;6.25;;;;;20.47;39.85;103261.03;5048303;28;45381;-74
2023/01/23 00:12:32;;;;;;;;;5.00;5.00;;;;;20.47;39.52;103264.53;5058152;28;45529;-75
2023/01/23 00:14:57;;;;;;;;;7.25;5.50;;;;;20.44;39.45;103248.88;5039782;28;48458;-74
2023/01/23 00:17:25;;;;;;;;;7.00;5.00;;;;;20.47;39.45;103248.69;5057195;28;45632;-74
2023/01/23 00:19:53;;;;;;;;;10.00;7.50;;;;;20.46;39.49;103241.69;5040137;28;45445;-74
2023/01/23 00:22:18;;;;;;;;;8.00;5.50;;;;;20.46;39.47;103239.03;5058034;28;45546;-74
2023/01/23 00:24:43;;;;;;;;;8.25;6.50;;;;;20.46;39.24;103235.53;5056479;28;45409;-73
2023/01/23 00:27:09;;;;;;;;;8.50;6.50;;;;;20.45;39.39;103234.72;5050693;28;45449;-74
2023/01/23 00:29:34;;;;;;;;;6.25;6.25;;;;;20.45;39.29;103240.00;5048111;28;45425;-74
2023/01/23 00:31:59;;;;;;;;;8.00;6.50;;;;;20.44;39.22;103242.75;5052895;28;45542;-74
2023/01/23 00:34:24;;;;;;;;;6.25;5.00;;;;;20.36;39.69;103228.28;5052484;28;46528;-73
2023/01/23 00:36:50;;;;;;;;;6.75;5.75;;;;;20.43;38.85;103236.63;5049047;28;46985;-74
2023/01/23 00:39:17;;;;;;;;;8.00;5.00;;;;;20.43;39.24;103238.44;5055580;28;45506;-73
2023/01/23 00:41:45;;;;;;;;;5.75;5.75;;;;;20.43;39.51;103241.91;5057840;28;45339;-74
2023/01/23 00:44:10;;;;;;;;;6.00;6.00;;;;;20.42;39.44;103250.81;5039337;28;47528;-74
2023/01/23 00:46:35;;;;;;;;;5.75;5.00;;;;;20.40;39.27;103236.84;5057202;28;45416;-74
2023/01/23 00:49:01;;;;;;;;;4.75;4.75;;;;;20.29;39.50;103227.03;5056769;28;45516;-73
2023/01/23 00:51:26;;;;;;;;;7.50;5.50;;;;;20.38;38.90;103247.53;5057373;28;45499;-74
2023/01/23 00:53:52;;;;;;;;;9.00;5.50;;;;;20.39;39.12;103248.38;5056388;28;45943;-73
2023/01/23 00:56:17;;;;;;;;;4.75;4.75;;;;;20.38;39.36;103246.69;5049979;28;45485;-75
2023/01/23 00:58:43;;;;;;;;;7.25;5.00;;;;;20.38;38.91;103246.69;5048207;28;45501;-74
2023/01/23 01:01:09;;;;;;;;;7.00;5.75;;;;;20.32;39.16;103237.41;5057548;28;45526;-74
2023/01/23 01:03:35;;;;;;;;;7.00;6.00;;;;;20.37;38.89;103239.72;5056344;28;46152;-74
2023/01/23 01:06:01;;;;;;;;;7.25;5.50;;;;;20.36;39.04;103241.50;5045152;28;45493;-74
2023/01/23 01:08:27;;;;;;;;;5.00;5.00;;;;;20.26;38.92;103220.19;5056968;28;45479;-73
2023/01/23 01:10:52;;;;;;;;;7.50;5.00;;;;;20.37;39.07;103237.94;5057333;28;45533;-73
2023/01/23 01:13:20;;;;;;;;;6.00;5.00;;;;;20.36;38.79;103230.09;5055979;28;46216;-73
2023/01/23 01:15:48;;;;;;;;;8.75;6.00;;;;;20.35;39.31;103223.94;5061999;28;45383;-73
2023/01/23 01:18:13;;;;;;;;;6.00;6.00;;;;;20.36;39.00;103224.78;5057109;28;45398;-75
2023/01/23 01:20:42;;;;;;;;;7.00;5.50;;;;;20.34;39.32;103216.13;5055114;28;45376;-73
2023/01/23 01:23:09;;;;;;;;;4.75;4.50;;;;;20.35;39.21;103226.59;5056631;28;46330;-75
2023/01/23 01:25:34;;;;;;;;;5.75;5.75;;;;;20.28;38.88;103212.13;5050476;28;45419;-72
2023/01/23 01:27:59;;;;;;;;;5.75;5.75;;;;;20.35;39.31;103225.78;5054199;28;45337;-75
2023/01/23 01:30:26;;;;;;;;;8.00;6.50;;;;;20.35;38.97;103233.69;5057173;28;45418;-75
2023/01/23 01:32:53;;;;;;;;;7.25;5.75;;;;;20.34;38.83;103224.91;5056453;28;47021;-75
2023/01/23 01:35:19;;;;;;;;;7.00;5.00;;;;;20.34;38.84;103229.34;5056564;28;45550;-75
2023/01/23 01:37:45;;;;;;;;;5.50;4.25;;;;;20.26;38.92;103220.19;5056450;28;45515;-75
2023/01/23 01:40:22;;;;;;;;;6.00;5.00;;;;;20.33;38.83;103233.78;5038696;28;45584;-73
2023/01/23 01:42:53;;;;;;;;;5.00;5.00;;;;;20.32;38.88;103242.69;5053263;28;46393;-75
2023/01/23 01:46:00;;;;;;;;;5.00;4.75;;;;;20.31;38.62;103238.34;5046686;28;45317;-75
2023/01/23 01:48:54;;;;;;;;;4.25;4.25;;;;;20.30;38.51;103244.56;5056714;28;45455;-75
2023/01/23 01:51:43;;;;;;;;;6.25;5.00;;;;;20.29;38.90;103249.03;5043426;28;46133;-75
2023/01/23 01:54:36;;;;;;;;;6.25;4.25;;;;;20.28;38.78;103243.84;5052911;28;45388;-76
2023/01/23 01:57:15;;;;;;;;;6.50;5.00;;;;;20.18;38.99;103238.38;5056249;28;45407;-75
2023/01/23 01:59:53;;;;;;;;;5.25;5.25;;;;;20.28;38.57;103257.06;5050106;28;45205;-74
2023/01/23 02:02:26;;;;;;;;;7.00;5.75;;;;;20.21;38.68;103247.91;5056299;28;45432;-75
2023/01/23 02:04:57;;;;;;;;;7.75;4.75;;;;;20.22;38.25;103254.88;5056047;28;47131;-74
2023/01/23 02:07:43;;;;;;;;;5.00;5.00;;;;;20.27;38.87;103264.16;5055757;28;45472;-75
2023/01/23 02:10:10;;;;;;;;;5.50;5.00;;;;;20.16;38.73;103240.28;5051759;28;45371;-75
2023/01/23 02:12:37;;;;;;;;;5.75;4.00;;;;;20.20;38.36;103257.63;5056412;28;45468;-75
2023/01/23 02:15:05;;;;;;;;;5.00;5.00;;;;;20.23;38.90;103260.03;5055639;28;47183;-75
2023/01/23 02:17:32;;;;;;;;;5.00;4.50;;;;;20.30;38.82;103271.03;5055154;28;45375;-75
2023/01/23 02:20:18;;;;;;;;;6.25;4.75;;;;;20.27;38.91;103253.56;5055813;28;45267;-76
2023/01/23 02:23:09;;;;;;;;;4.75;4.75;;;;;20.29;38.71;103261.41;5056254;28;45293;-74
2023/01/23 02:25:44;;;;;;;;;6.00;6.00;;;;;20.29;38.67;103256.97;5055199;28;47184;-73
2023/01/23 02:28:14;;;;;;;;;7.25;5.50;;;;;20.29;38.92;103256.13;5055686;28;45545;-75
2023/01/23 02:30:41;;;;;;;;;8.00;4.00;;;;;20.25;38.62;103244.06;5055818;28;45269;-73
2023/01/23 02:33:30;;;;;;;;;4.00;4.00;;;;;20.29;38.68;103258.78;5058775;28;45340;-73
2023/01/23 02:36:00;;;;;;;;;3.00;3.00;;;;;20.29;38.71;103259.63;5059937;28;47453;-75
2023/01/23 02:38:30;;;;;;;;;3.75;3.75;;;;;20.29;38.65;103261.41;5055904;28;45392;-73
2023/01/23 02:40:58;;;;;;;;;4.00;4.00;;;;;20.28;38.61;103265.00;5054538;28;45466;-75
2023/01/23 02:43:33;;;;;;;;;3.50;1.75;;;;;20.28;38.73;103249.13;5055421;28;45451;-76
2023/01/23 02:46:01;;;;;;;;;5.75;4.00;;;;;20.28;38.64;103254.44;5052457;28;45414;-75
2023/01/23 02:48:26;;;;;;;;;6.75;5.00;;;;;20.27;38.68;103250.94;5047217;28;45286;-75
2023/01/23 02:50:52;;;;;;;;;5.00;5.00;;;;;20.27;38.80;103248.28;5052717;28;45218;-75
2023/01/23 02:53:17;;;;;;;;;5.75;5.75;;;;;20.20;38.65;103236.47;5050867;28;45227;-76
2023/01/23 02:55:43;;;;;;;;;6.00;4.50;;;;;20.27;38.55;103244.81;5054586;28;45397;-72
2023/01/23 03:00:53;;;;;;;;;8.00;5.00;;;;;20.26;38.50;103243.97;5054913;28;45332;-75
2023/01/23 03:03:18;;;;;;;;;5.50;4.25;;;;;20.25;38.70;103242.28;5037190;28;45324;-73
2023/01/23 03:05:45;;;;;;;;;7.00;6.00;;;;;20.25;38.90;103242.28;5054965;28;45373;-75
2023/01/23 03:08:11;;;;;;;;;4.50;4.50;;;;;20.26;38.54;103246.63;5055422;28;45289;-75
2023/01/23 03:10:36;;;;;;;;;5.00;5.00;;;;;20.22;38.56;103250.41;5055404;28;45627;-75
2023/01/23 03:13:06;;;;;;;;;4.00;4.00;;;;;20.16;38.52;103243.78;5055104;28;45465;-74
2023/01/23 03:15:32;;;;;;;;;4.75;4.75;;;;;20.25;38.55;103252.84;5037662;28;45466;-75
2023/01/23 03:17:58;;;;;;;;;5.00;5.00;;;;;20.25;38.42;103260.78;5062517;28;45587;-75
2023/01/23 03:20:25;;;;;;;;;4.25;4.00;;;;;20.15;38.62;103249.16;5065989;28;45877;-75
2023/01/23 03:22:51;;;;;;;;;5.00;5.00;;;;;20.24;38.70;103264.41;5055235;28;46095;-75
2023/01/23 03:25:16;;;;;;;;;6.25;5.25;;;;;20.20;38.38;103254.97;5047480;28;45997;-75
2023/01/23 03:27:42;;;;;;;;;5.25;4.50;;;;;20.24;38.44;103264.41;5052407;28;45554;-75
2023/01/23 03:30:12;;;;;;;;;4.75;4.75;;;;;20.16;38.56;103253.50;5054675;28;45535;-74
2023/01/23 03:32:38;;;;;;;;;4.25;4.25;;;;;20.18;38.35;103257.72;5067904;28;45447;-75
2023/01/23 03:35:06;;;;;;;;;4.25;4.25;;;;;20.17;38.48;103247.25;5053132;28;47196;-75
2023/01/23 03:37:31;;;;;;;;;4.25;4.00;;;;;20.15;38.48;103243.88;5048878;28;45354;-75
2023/01/23 03:42:40;;;;;;;;;5.75;4.50;;;;;20.11;38.33;103243.25;5054845;28;45487;-75
2023/01/23 03:45:06;;;;;;;;;4.25;4.25;;;;;20.23;38.53;103264.47;5054287;28;45396;-75
2023/01/23 03:47:32;;;;;;;;;5.00;4.00;;;;;20.23;38.24;103259.19;5034151;28;45382;-75
2023/01/23 03:49:57;;;;;;;;;5.50;4.00;;;;;20.17;38.51;103255.19;5034930;28;45565;-73
2023/01/23 03:52:23;;;;;;;;;6.00;4.25;;;;;20.12;38.09;103239.66;5022373;28;45362;-75
2023/01/23 03:54:49;;;;;;;;;5.50;4.75;;;;;20.21;38.37;103254.03;5034982;28;45276;-74
2023/01/23 03:57:14;;;;;;;;;3.75;3.75;;;;;20.21;37.94;103261.09;5034617;28;45292;-75
2023/01/23 03:59:40;;;;;;;;;7.00;5.25;;;;;20.21;38.46;103267.25;5032385;28;45563;-75
2023/01/23 04:02:05;;;;;;;;;5.75;4.75;;;;;20.21;38.37;103274.31;5034227;28;45409;-75
2023/01/23 04:04:31;;;;;;;;;5.75;4.00;;;;;20.20;38.02;103275.25;5034707;28;45406;-75
2023/01/23 04:06:57;;;;;;;;;6.00;5.75;;;;;20.20;38.51;103276.13;5034510;28;45194;-75
2023/01/23 04:09:26;;;;;;;;;4.50;4.50;;;;;20.18;38.46;103276.25;5037368;28;45318;-75
2023/01/23 04:11:57;;;;;;;;;3.50;3.50;;;;;20.18;38.42;103280.66;5038161;28;45915;-75
2023/01/23 04:14:25;;;;;;;;;4.00;3.75;;;;;20.17;38.05;103273.69;5037771;28;45578;-74
2023/01/23 04:16:51;;;;;;;;;4.00;3.75;;;;;20.14;38.09;103276.56;5036435;28;45451;-75
2023/01/23 04:19:19;;;;;;;;;6.25;5.25;;;;;20.18;38.06;103283.31;5037479;28;45390;-75
2023/01/23 04:21:48;;;;;;;;;6.00;4.50;;;;;20.17;38.08;103286.91;5037243;28;45474;-75
2023/01/23 04:24:15;;;;;;;;;5.00;5.00;;;;;20.17;37.83;103273.69;5036470;28;47096;-74
2023/01/23 04:26:41;;;;;;;;;5.00;5.00;;;;;20.12;37.79;103260.78;5037262;28;45378;-75
2023/01/23 04:29:06;;;;;;;;;6.00;6.00;;;;;20.19;37.98;103274.44;5032270;28;45468;-75
2023/01/23 04:31:32;;;;;;;;;7.00;5.00;;;;;20.18;38.01;103280.66;5036495;28;45339;-75
2023/01/23 04:33:57;;;;;;;;;5.50;5.00;;;;;20.17;38.17;103277.19;5029224;28;45389;-75
2023/01/23 04:36:22;;;;;;;;;7.00;3.75;;;;;20.11;38.04;103252.97;5032577;28;45335;-75
2023/01/23 04:38:48;;;;;;;;;5.50;4.00;;;;;20.19;38.33;103266.53;5029596;28;45476;-75
2023/01/23 04:41:24;;;;;;;;;5.75;4.00;;;;;20.19;38.17;103266.53;5027133;28;45472;-75
2023/01/23 04:43:49;;;;;;;;;4.75;4.00;;;;;20.15;38.04;103260.59;5036293;28;47128;-75
2023/01/23 04:46:14;;;;;;;;;5.25;4.25;;;;;20.20;38.13;103269.97;5046056;28;45386;-75
2023/01/23 04:48:39;;;;;;;;;7.00;6.00;;;;;20.02;38.22;103252.66;5057374;28;45405;-75
2023/01/23 04:51:05;;;;;;;;;7.00;4.00;;;;;20.17;38.19;103282.47;5057403;28;45548;-76
2023/01/23 04:53:31;;;;;;;;;4.25;4.25;;;;;20.20;38.01;103283.19;5057444;28;46995;-76
2023/01/23 04:55:56;;;;;;;;;6.50;6.00;;;;;20.15;37.86;103276.44;5057009;28;45355;-75
2023/01/23 04:58:21;;;;;;;;;5.00;3.50;;;;;20.13;38.14;103283.66;5048310;28;45347;-75
2023/01/23 05:00:47;;;;;;;;;4.75;4.25;;;;;20.18;38.15;103296.53;5056110;28;45238;-75
2023/01/23 05:03:13;;;;;;;;;7.00;5.75;;;;;20.19;37.82;103298.25;5057210;28;46865;-75
2023/01/23 05:05:38;;;;;;;;;5.50;5.00;;;;;20.17;38.15;103297.47;5057000;28;45389;-76
2023/01/23 05:08:04;;;;;;;;;2.50;2.00;;;;;20.05;37.88;103280.66;5057330;28;45478;-75
2023/01/23 05:10:30;;;;;;;;;4.25;4.25;;;;;20.17;38.17;103295.69;5057038;28;45534;-75
2023/01/23 05:12:55;;;;;;;;;6.25;5.00;;;;;20.14;37.96;103290.59;5056558;28;46061;-74
2023/01/23 05:15:21;;;;;;;;;4.50;4.25;;;;;20.16;38.23;103293.16;5055808;28;45488;-75
2023/01/23 05:17:47;;;;;;;;;4.75;3.00;;;;;20.17;38.00;103298.31;5056312;28;45531;-75
2023/01/23 05:20:13;;;;;;;;;7.00;4.00;;;;;20.12;37.79;103292.53;5036961;28;45392;-74
2023/01/23 05:22:50;;;;;;;;;5.00;3.75;;;;;20.18;38.11;103300.03;5056721;28;46023;-75
2023/01/23 05:25:16;;;;;;;;;3.00;3.00;;;;;20.18;38.01;103304.47;5056088;28;45408;-75
2023/01/23 05:27:42;;;;;;;;;4.00;4.00;;;;;20.12;38.18;103292.53;5056558;28;45186;-75
2023/01/23 05:30:08;;;;;;;;;2.25;2.00;;;;;20.17;38.30;103306.25;5056707;28;45513;-75
2023/01/23 05:32:33;;;;;;;;;4.50;4.50;;;;;20.07;38.09;103294.59;5056274;28;46562;-75
2023/01/23 05:34:58;;;;;;;;;6.00;5.00;;;;;20.16;38.11;103312.50;5055921;28;45368;-75
2023/01/23 05:37:24;;;;;;;;;2.25;2.25;;;;;20.17;38.14;103302.75;5056576;28;45344;-76
2023/01/23 05:39:50;;;;;;;;;6.00;4.50;;;;;20.16;37.67;103301.09;5056974;28;45792;-75
2023/01/23 05:42:15;;;;;;;;;5.25;4.25;;;;;20.16;38.00;103304.59;5056575;28;45458;-75
2023/01/23 05:44:40;;;;;;;;;5.75;4.50;;;;;20.12;38.07;103299.59;5055307;28;45894;-75
2023/01/23 05:47:05;;;;;;;;;6.50;5.00;;;;;20.11;38.04;103306.66;5056771;28;45454;-74
2023/01/23 05:49:31;;;;;;;;;6.00;4.50;;;;;20.15;37.83;103318.75;5055428;28;45535;-75
2023/01/23 05:51:56;;;;;;;;;4.00;4.00;;;;;20.11;38.09;103309.31;5056129;28;47324;-75
2023/01/23 05:54:21;;;;;;;;;4.00;3.00;;;;;20.16;37.96;103316.94;5055771;28;45406;-75
2023/01/23 05:56:47;;;;;;;;;3.00;3.00;;;;;20.14;38.13;103314.41;5056678;28;45348;-75
2023/01/23 05:59:12;;;;;;;;;4.25;4.25;;;;;20.16;38.25;103314.31;5055100;28;45533;-76
2023/01/23 06:01:37;;;;;;;;;4.50;4.00;;;;;20.16;38.33;103316.94;5056343;28;45979;-75
2023/01/23 06:04:03;;;;;;;;;4.25;4.25;;;;;20.16;37.88;103306.38;5056013;28;45362;-75
2023/01/23 06:06:28;;;;;;;;;5.50;4.00;;;;;20.15;37.89;103308.16;5056899;28;45529;-75
2023/01/23 06:08:53;;;;;;;;;2.00;2.00;;;;;20.16;38.42;103314.31;5049293;28;45728;-75
2023/01/23 06:11:19;;;;;;;;;6.25;3.75;;;;;20.16;38.22;103309.88;5056314;28;45412;-75
2023/01/23 06:13:44;;;;;;;;;4.25;3.25;;;;;20.18;38.13;103317.69;5055052;28;45460;-75
2023/01/23 06:16:09;;;;;;;;;7.00;3.50;;;;;20.18;37.98;103307.09;5061382;28;45425;-75
2023/01/23 06:18:35;;;;;;;;;4.25;3.25;;;;;20.07;38.02;103298.09;5056214;28;45401;-75
2023/01/23 06:21:00;;;;;;;;;4.00;4.00;;;;;20.20;38.13;103312.28;5056288;28;47340;-74
2023/01/23 06:23:26;;;;;;;;;4.25;3.50;;;;;20.20;38.18;103307.00;5055960;28;45470;-76
2023/01/23 06:25:52;;;;;;;;;5.00;4.00;;;;;20.22;37.96;103313.03;5055591;28;45410;-73
2023/01/23 06:28:17;;;;;;;;;1.50;1.50;;;;;20.22;37.88;103310.41;5054384;28;45312;-73
2023/01/23 06:30:42;;;;;;;;;6.75;5.00;;;;;20.23;37.98;103314.72;5054274;28;46257;-72
2023/01/23 06:33:08;;;;;;;;;3.00;3.00;;;;;20.24;38.25;103316.41;5053631;28;45370;-72
2023/01/23 06:35:33;;;;;;;;;4.75;3.75;;;;;20.24;38.04;103311.13;5048831;28;45343;-72
2023/01/23 06:37:58;;;;;;;;;4.75;3.75;;;;;20.23;38.48;103312.91;5055388;28;45427;-75
2023/01/23 06:40:24;;;;;;;;;3.75;3.75;;;;;20.25;38.73;103308.38;5054881;28;46274;-72
2023/01/23 06:42:53;;;;;;;;;2.75;2.25;;;;;20.20;38.46;103293.78;5059534;28;45443;-73
2023/01/23 06:45:18;;;;;;;;;3.75;3.75;;;;;20.27;38.52;103295.88;5051100;28;45389;-72
2023/01/23 06:47:44;;;;;;;;;2.75;2.50;;;;;20.26;38.59;103299.50;5031346;28;45634;-72
2023/01/23 06:50:09;;;;;;;;;4.25;4.00;;;;;20.22;38.65;103294.53;5050182;28;46605;-72
2023/01/23 06:52:36;;;;;;;;;4.50;3.75;;;;;20.26;38.46;103294.19;5051187;28;45344;-71
2023/01/23 06:55:01;;;;;;;;;2.75;2.75;;;;;20.28;38.77;103299.38;5048271;28;45672;-73
2023/01/23 06:57:27;;;;;;;;;6.75;4.75;;;;;20.29;38.45;103304.56;5049001;28;45442;-72
2023/01/23 06:59:52;;;;;;;;;3.25;3.25;;;;;20.29;38.74;103304.56;5051564;28;46901;-73
2023/01/23 07:02:17;;;;;;;;;3.25;3.25;;;;;20.31;38.30;103315.03;5052629;28;45377;-74
2023/01/23 07:04:43;;;;;;;;;6.75;3.25;;;;;20.31;38.36;103300.94;5051946;28;45550;-74
2023/01/23 07:07:08;;;;;;;;;2.75;2.75;;;;;20.32;38.33;103303.50;5049482;28;45336;-75
2023/01/23 07:09:33;;;;;;;;;5.00;5.00;;;;;20.29;38.60;103309.00;5050611;28;48173;-75
2023/01/23 07:11:58;;;;;;;;;5.00;4.00;;;;;20.31;38.48;103317.66;5050595;28;45506;-74
2023/01/23 07:14:25;;;;;;;;;3.75;3.75;;;;;20.32;38.43;103322.00;5052192;28;45296;-75
2023/01/23 07:16:55;;;;;;;;;5.00;5.00;;;;;20.33;38.55;103325.47;5051724;28;45602;-75
2023/01/23 07:19:21;;;;;;;;;4.00;4.00;;;;;20.17;39.06;103300.97;5053741;28;46208;-76
2023/01/23 07:21:49;;;;;;;;;4.25;4.00;;;;;20.34;38.81;103324.53;5031334;28;45441;-73
2023/01/23 07:24:15;;;;;;;;;3.50;3.50;;;;;20.33;39.23;103321.03;5053420;28;45563;-72
2023/01/23 07:26:40;;;;;;;;;3.50;2.75;;;;;20.32;38.89;103327.31;5037403;28;45470;-72
2023/01/23 07:29:07;;;;;;;;;3.75;3.00;;;;;20.33;39.14;103328.97;5053323;28;46240;-72
2023/01/23 07:31:33;;;;;;;;;4.00;2.75;;;;;20.33;38.90;103325.47;5055135;28;45513;-72
2023/01/23 07:33:59;;;;;;;;;3.00;3.00;;;;;20.33;38.83;103321.03;5055471;28;45295;-72
2023/01/23 07:36:24;;;;;;;;;4.75;4.00;;;;;20.34;39.16;103325.38;5046904;28;45308;-72
2023/01/23 07:38:50;;;;;;;;;4.75;4.00;;;;;20.34;38.82;103329.81;5055084;28;46346;-72
2023/01/23 07:41:15;;;;;;;;;3.25;3.25;;;;;20.33;39.13;103334.25;5054168;28;45427;-71
2023/01/23 07:43:40;;;;;;;;;2.75;2.75;;;;;20.26;38.92;103322.44;5050790;28;45296;-70
2023/01/23 07:46:06;;;;;;;;;3.25;3.00;;;;;20.33;39.01;103341.34;5055288;28;45423;-72
2023/01/23 07:48:32;;;;;;;;;3.00;3.00;;;;;20.33;38.78;103341.34;5058379;28;47044;-72
2023/01/23 07:51:00;;;;;;;;;2.75;2.25;;;;;20.33;38.76;103336.91;5058180;28;45305;-72
2023/01/23 07:53:26;;;;;;;;;3.00;2.75;;;;;20.32;38.91;103337.88;5058475;28;45414;-72
2023/01/23 07:55:51;;;;;;;;;3.75;3.75;;;;;20.33;39.04;103338.69;5057505;28;45437;-72
2023/01/23 07:58:16;;;;;;;;;4.50;4.50;;;;;20.33;38.61;103339.53;5051899;28;46594;-72
2023/01/23 08:00:42;;;;;;;;;4.25;3.75;;;;;20.33;38.84;103338.69;5055183;28;45531;-72
2023/01/23 08:03:07;;;;;;;;;4.00;4.00;;;;;20.32;38.78;103331.75;5058777;28;45370;-72
2023/01/23 08:05:32;;;;;;;;;4.00;3.00;;;;;20.31;38.79;103336.19;5058009;28;45488;-72
2023/01/23 08:07:58;;;;;;;;;6.50;4.25;;;;;20.31;38.74;103333.53;5057954;28;45908;-72
2023/01/23 08:10:23;;;;;;;;;3.50;3.50;;;;;20.22;38.56;103327.06;5057422;28;45293;-72
2023/01/23 08:12:48;;;;;;;;;3.75;3.25;;;;;20.31;38.80;103337.97;5058467;28;45490;-72
2023/01/23 08:15:14;;;;;;;;;3.25;3.25;;;;;20.30;38.87;103337.13;5058369;28;45818;-72
2023/01/23 08:17:39;;;;;;;;;3.75;3.75;;;;;20.20;38.54;103330.78;5058095;28;45335;-72
2023/01/23 08:20:05;;;;;;;;;1.75;1.00;;;;;20.21;38.79;103335.97;5057946;28;45372;-72
2023/01/23 08:22:30;;;;;;;;;4.50;4.50;;;;;20.28;38.67;103345.16;5067507;28;45463;-72
2023/01/23 08:24:56;;;;;;;;;5.00;3.50;;;;;20.27;38.68;103346.09;5060469;28;45299;-72
2023/01/23 08:27:21;;;;;;;;;3.00;3.00;;;;;20.27;38.34;103346.09;5057912;28;45468;-72
2023/01/23 08:29:46;;;;;;;;;3.00;3.00;;;;;19.91;38.61;103290.38;5057561;28;45571;-72
2023/01/23 08:32:12;;;;;;;;;4.00;3.25;;;;;20.26;38.57;103348.88;5058138;28;45289;-72
2023/01/23 08:34:37;;;;;;;;;5.00;3.75;;;;;20.26;38.45;103346.22;5057570;28;45635;-71
2023/01/23 08:37:02;;;;;;;;;3.00;3.00;;;;;20.26;38.37;103352.38;5057199;28;45391;-71
2023/01/23 08:39:28;;;;;;;;;4.00;2.00;;;;;20.26;38.40;103347.06;5057350;28;45471;-71
2023/01/23 08:41:53;;;;;;;;;4.25;3.00;;;;;20.25;38.50;103350.66;5057913;28;45371;-71
2023/01/23 08:44:18;;;;;;;;;6.50;4.75;;;;;20.25;38.58;103348.03;5057279;28;45577;-72
2023/01/23 08:46:45;;;;;;;;;4.00;4.00;;;;;20.13;38.26;103333.00;5057328;28;47304;-72
2023/01/23 08:49:10;;;;;;;;;3.50;3.50;;;;;20.13;38.42;103338.31;5056895;28;45388;-72
2023/01/23 08:51:36;;;;;;;;;3.75;3.25;;;;;20.22;38.36;103353.50;5054502;28;45732;-71
2023/01/23 08:54:01;;;;;;;;;4.00;4.00;;;;;20.26;38.55;103359.44;5039031;28;45282;-72
2023/01/23 08:56:26;;;;;;;;;3.50;3.50;;;;;20.25;38.50;103352.44;5057508;28;46246;-72
2023/01/23 08:58:52;;;;;;;;;2.75;2.75;;;;;20.21;38.49;103345.69;5050466;28;45445;-71
2023/01/23 09:01:22;;;;;;;;;5.75;4.00;;;;;20.25;38.54;103355.09;5056582;28;45466;-70
2023/01/23 09:03:48;;;;;;;;;5.75;3.00;;;;;20.25;38.31;103360.38;5049663;28;45411;-72
2023/01/23 09:06:16;;;;;;;;;3.50;2.75;;;;;20.17;38.25;103351.19;5056933;28;45428;-71
2023/01/23 09:08:42;;;;;;;;;5.00;4.50;;;;;19.95;38.28;103310.38;5057402;28;45417;-72
2023/01/23 09:11:10;;;;;;;;;6.00;3.50;;;;;20.26;38.30;103355.00;5057365;28;45761;-72
2023/01/23 09:13:36;;;;;;;;;4.00;4.00;;;;;20.21;38.81;103353.63;5061494;28;45323;-72
2023/01/23 09:16:02;;;;;;;;;4.00;3.50;;;;;20.27;38.69;103358.50;5066466;28;46419;-72
2023/01/23 09:18:28;;;;;;;;;3.00;3.00;;;;;20.28;38.45;103357.53;5057192;28;45507;-72
2023/01/23 09:20:54;;;;;;;;;4.00;3.00;;;;;20.27;38.57;103355.84;5056654;28;45517;-72
2023/01/23 09:23:20;;;;;;;;;2.00;2.00;;;;;20.27;38.31;103358.50;5057074;28;45288;-72
2023/01/23 09:25:46;;;;;;;;;4.50;4.50;;;;;20.27;38.69;103361.16;5056483;28;45484;-72
2023/01/23 09:28:11;;;;;;;;;5.00;2.75;;;;;20.27;38.64;103363.78;5056400;28;45407;-72
2023/01/23 09:30:37;;;;;;;;;4.00;4.00;;;;;20.26;38.59;103368.22;5056524;28;45360;-72
2023/01/23 09:33:02;;;;;;;;;5.75;5.25;;;;;20.22;38.49;103363.25;5057399;28;45497;-72
2023/01/23 09:35:28;;;;;;;;;5.50;5.50;;;;;20.27;38.30;103377.00;5055988;28;45715;-72
2023/01/23 09:37:59;;;;;;;;;3.75;3.50;;;;;20.26;38.78;103385.88;5056768;28;45344;-72
2023/01/23 09:40:28;;;;;;;;;7.00;4.25;;;;;20.21;38.31;103369.50;5038943;28;45313;-72
2023/01/23 09:43:01;;;;;;;;;4.75;4.00;;;;;20.26;38.57;103380.59;5038423;28;45290;-73
2023/01/23 09:45:27;;;;;;;;;4.00;3.00;;;;;20.22;38.64;103382.59;5056693;28;46182;-72
2023/01/23 09:48:01;;;;;;;;;4.75;3.50;;;;;20.25;38.36;103379.75;5055068;28;45368;-72
2023/01/23 09:50:32;;;;;;;;;2.00;2.00;;;;;20.26;38.46;103385.88;5056385;28;45529;-72
2023/01/23 09:53:11;;;;;;;;;3.00;3.00;;;;;20.12;38.49;103355.94;5025876;28;45500;-72
2023/01/23 09:55:44;;;;;;;;;4.50;3.25;;;;;20.26;38.50;103375.31;5055404;28;46360;-72
2023/01/23 09:58:21;;;;;;;;;7.50;4.75;;;;;20.26;38.43;103367.38;5056457;28;45473;-72
2023/01/23 10:00:47;;;;;;;;;4.00;4.00;;;;;20.25;38.33;103370.97;5056323;28;45372;-71
2023/01/23 10:03:15;;;;;;;;;3.75;3.00;;;;;20.25;38.16;103365.66;5056678;28;45447;-72
2023/01/23 10:05:55;;;;;;;;;4.25;4.25;;;;;20.24;38.63;103369.28;5054794;28;46195;-71
2023/01/23 10:08:51;;;;;;;;;4.00;4.00;;;;;20.24;38.54;103367.50;5056118;28;45345;-70
2023/01/23 10:11:42;;;;;;;;;4.00;3.50;;;;;20.24;38.31;103369.28;5049813;28;45377;-72
2023/01/23 10:14:13;;;;;;;;;4.75;4.00;;;;;20.23;38.16;103368.44;5041268;28;45467;-71
2023/01/23 10:17:15;;;;;;;;;4.75;3.00;;;;;20.23;38.40;103370.22;5051362;28;46616;-72
2023/01/23 10:20:29;;;;;;;;;6.00;5.50;;;;;20.23;38.28;103375.50;5054528;28;45511;-71
2023/01/23 10:23:24;;;;;;;;;3.00;3.00;;;;;20.23;38.36;103379.00;4987823;28;45354;-71
2023/01/23 10:25:50;;;;;;;;;6.75;6.00;;;;;20.23;38.20;103370.22;4989102;28;45945;-72
2023/01/23 10:28:20;;;;;;;;;8.00;6.75;;;;;20.22;38.36;103372.00;4993745;28;45964;-72
2023/01/23 10:30:50;;;;;;;;;3.50;3.50;;;;;20.17;38.24;103366.19;4993721;28;45497;-70
2023/01/23 10:33:17;;;;;;;;;6.00;5.00;;;;;20.22;38.33;103379.13;5006411;28;45385;-72
2023/01/23 10:35:54;;;;;;;;;4.50;3.50;;;;;20.21;38.48;103372.97;4992702;28;45381;-72
2023/01/23 10:38:30;;;;;;;;;4.00;4.00;;;;;20.20;38.31;103373.94;4993789;28;47304;-72
2023/01/23 10:41:16;;;;;;;;;6.00;5.00;;;;;20.19;38.36;103374.91;4993449;28;45263;-72
2023/01/23 10:43:43;;;;;;;;;8.25;5.75;;;;;20.18;38.14;103374.03;4994210;28;45303;-72
2023/01/23 10:46:14;;;;;;;;;6.00;4.50;;;;;20.18;37.92;103370.53;5006516;28;45422;-72
2023/01/23 10:48:41;;;;;;;;;7.75;5.00;;;;;20.16;38.31;103377.75;5003630;28;45395;-72
2023/01/23 10:51:29;;;;;;;;;4.75;4.00;;;;;20.11;37.72;103363.97;4994819;28;45418;-73
2023/01/23 10:54:22;;;;;;;;;5.75;5.75;;;;;20.16;38.31;103368.03;5031803;28;45437;-71
2023/01/23 10:56:52;;;;;;;;;5.50;4.25;;;;;20.03;38.29;103351.28;5052753;28;45876;-72
2023/01/23 10:59:47;;;;;;;;;8.75;4.00;;;;;20.14;37.98;103361.97;5055353;28;46949;-71
2023/01/23 11:02:12;;;;;;;;;4.50;3.75;;;;;20.14;38.13;103361.97;5055023;28;45360;-73
2023/01/23 11:04:40;;;;;;;;;2.00;1.50;;;;;20.15;38.02;103371.59;5055090;28;45414;-72
2023/01/23 11:07:10;;;;;;;;;5.50;4.75;;;;;20.00;38.00;103348.84;5055745;28;45429;-72
2023/01/23 11:09:58;;;;;;;;;4.75;4.75;;;;;20.15;38.10;103370.75;5055142;28;45463;-71
2023/01/23 11:12:29;;;;;;;;;5.75;5.75;;;;;20.17;38.04;103374.13;5051424;28;45875;-72
2023/01/23 11:15:12;;;;;;;;;4.25;2.00;;;;;20.17;37.90;103376.78;5037359;28;45398;-73
2023/01/23 11:17:40;;;;;;;;;5.75;5.75;;;;;20.17;38.14;103367.06;5058001;28;45268;-72
2023/01/23 11:20:30;;;;;;;;;5.00;5.00;;;;;20.18;38.20;103368.75;5058191;28;47086;-71
2023/01/23 11:23:02;;;;;;;;;7.00;6.00;;;;;20.14;38.39;103358.50;5057883;28;45376;-73
2023/01/23 11:25:32;;;;;;;;;5.50;5.00;;;;;20.20;38.21;103368.63;5058477;28;45478;-72
2023/01/23 11:28:00;;;;;;;;;4.00;4.00;;;;;20.19;37.83;103359.03;5058833;28;45344;-72
2023/01/23 11:30:37;;;;;;;;;6.50;5.00;;;;;20.20;38.11;103367.78;5058854;28;46370;-72
2023/01/23 11:33:21;;;;;;;;;6.00;5.00;;;;;20.20;37.95;103362.50;5058717;28;45483;-72
2023/01/23 11:36:01;;;;;;;;;4.50;4.25;;;;;20.19;38.06;103356.38;5057821;28;46124;-72